Jetersville, Virginia
Current Conditions -  °F | °C
As of 4:35 PM on Friday 24 Oct 2014 (Local Time) from KW81 Reporting Station
Clear Clear  
Wind Chill: 69°   Ceiling: Unl
Heat Index: 69°   Visibility: 10mi
Dew Point: 38°   Wind: 5mph
Humidity: 32%   Direction: 300°WNW
Pressure: 29.94"   Gusts: NA
Location:  37.29°N, 78.09°W
Report Text: KW81 242035Z AUTO 30004KT 10SM CLR 21/03 A2994 RMK AO1 T02070034
Loading
Personal Weather Stations






























Interactive Weather Map
Tropical Storm Tracking
New forecast layout! Learn more

10-Day Weather Forecast

Advertisements
Track Severe Weather on mobile